createdAt,value
2022-08-17T00:06:57.973Z,100531.59
2022-08-17T00:14:00.630Z,100537.44
2022-08-17T00:21:02.928Z,100540.88
2022-08-17T00:28:06.056Z,100536.78
2022-08-17T00:35:08.313Z,100547.47
2022-08-17T00:42:14.046Z,100549.00
2022-08-17T00:49:15.530Z,100546.09
2022-08-17T00:56:18.826Z,100556.59
2022-08-17T01:03:21.460Z,100549.56
2022-08-17T01:10:58.348Z,100557.13
2022-08-17T01:17:45.843Z,100566.41
2022-08-17T01:24:48.734Z,100569.66
2022-08-17T01:31:51.124Z,100568.16
2022-08-17T01:38:52.589Z,100579.50
2022-08-17T01:46:03.242Z,100577.38
2022-08-17T01:53:06.287Z,100580.34
2022-08-17T02:00:10.260Z,100587.19
2022-08-17T02:07:12.400Z,100572.25
2022-08-17T02:14:13.887Z,100573.09
2022-08-17T02:21:15.365Z,100575.00
2022-08-17T02:28:17.191Z,100581.47
2022-08-17T02:35:20.084Z,100578.75
2022-08-17T02:42:31.467Z,100578.75
2022-08-17T02:49:33.077Z,100566.03
2022-08-17T02:56:34.577Z,100575.53
2022-08-17T03:03:36.599Z,100585.13
2022-08-17T03:10:38.094Z,100573.44
2022-08-17T03:17:39.576Z,100573.75
2022-08-17T03:24:41.032Z,100573.38
2022-08-17T03:31:42.761Z,100574.94
2022-08-17T03:38:44.231Z,100565.78
2022-08-17T03:46:05.829Z,100573.66
2022-08-17T03:53:54.379Z,100565.06
2022-08-17T04:00:55.834Z,100570.00
2022-08-17T04:07:57.262Z,100572.59
2022-08-17T04:14:58.990Z,100569.69
2022-08-17T04:22:00.525Z,100582.38
2022-08-17T04:29:01.996Z,100573.13
2022-08-17T04:36:04.328Z,100585.69
2022-08-17T04:43:09.990Z,100594.81
2022-08-17T04:50:11.433Z,100598.97
2022-08-17T04:57:12.923Z,100602.28
2022-08-17T05:04:32.956Z,100606.25
2022-08-17T05:11:36.761Z,100607.50
2022-08-17T05:18:38.869Z,100604.28
2022-08-17T05:25:41.177Z,100605.00
2022-08-17T05:32:52.498Z,100615.81
2022-08-17T05:39:54.166Z,100621.00
2022-08-17T05:46:55.696Z,100627.22
2022-08-17T05:54:15.693Z,100624.16
2022-08-17T06:01:17.161Z,100638.25
2022-08-17T06:08:18.693Z,100640.63
2022-08-17T06:15:27.789Z,100646.13
2022-08-17T06:22:31.204Z,100645.44
2022-08-17T06:29:42.086Z,100647.81
2022-08-17T06:36:48.126Z,100647.41
2022-08-17T06:44:08.353Z,100647.34
2022-08-17T06:51:09.781Z,100646.06
2022-08-17T06:58:15.676Z,100652.66
2022-08-17T07:05:18.441Z,100651.13
2022-08-17T07:12:22.278Z,100655.44
2022-08-17T07:19:25.283Z,100653.19
2022-08-17T07:26:27.498Z,100652.56
2022-08-17T07:33:29.538Z,100656.31
2022-08-17T07:40:33.450Z,100655.69
2022-08-17T07:47:53.455Z,100656.63
2022-08-17T07:54:54.920Z,100666.63
2022-08-17T08:01:57.495Z,100658.19
2022-08-17T08:09:00.842Z,100654.28
2022-08-17T08:16:14.293Z,100659.09
2022-08-17T08:23:19.175Z,100661.25
2022-08-17T08:30:21.480Z,100665.94
2022-08-17T08:37:37.860Z,100667.59
2022-08-17T08:45:01.176Z,100662.44
2022-08-17T08:52:08.637Z,100649.84
2022-08-17T08:59:28.634Z,100651.66
2022-08-17T09:06:39.492Z,100643.81
2022-08-17T09:14:00.305Z,100651.50
2022-08-17T09:21:11.390Z,100643.75
2022-08-17T09:28:19.036Z,100646.19
2022-08-17T09:35:25.153Z,100639.09
2022-08-17T09:42:40.407Z,100637.13
2022-08-17T09:49:44.891Z,100642.25
2022-08-17T09:57:18.116Z,100639.28
2022-08-17T10:04:28.892Z,100631.84
2022-08-17T10:11:51.757Z,100623.22
2022-08-17T10:19:02.065Z,100618.34
2022-08-17T10:26:23.045Z,100622.94
2022-08-17T10:33:27.646Z,100622.31
2022-08-17T10:40:43.665Z,100628.91
2022-08-17T10:48:04.673Z,100623.97
2022-08-17T10:55:08.650Z,100622.38
2022-08-17T11:02:10.113Z,100614.50
2022-08-17T11:09:27.531Z,100615.94
2022-08-17T11:16:33.292Z,100597.16
2022-08-17T11:23:46.843Z,100594.06
2022-08-17T11:30:53.013Z,100586.16
2022-08-17T11:37:54.929Z,100592.72
2022-08-17T11:44:57.409Z,100583.19
2022-08-17T11:52:00.279Z,100576.94
2022-08-17T11:59:02.908Z,100569.38
2022-08-17T12:06:05.866Z,100569.50
2022-08-17T12:13:10.436Z,100570.66
2022-08-17T12:20:14.717Z,100569.75
2022-08-17T12:27:20.458Z,100566.19
2022-08-17T12:34:42.060Z,100575.56
2022-08-17T12:41:44.394Z,100572.50
2022-08-17T12:48:59.293Z,100574.16
2022-08-17T12:56:01.495Z,100554.19
2022-08-17T13:03:05.826Z,100543.69
2022-08-17T13:10:07.372Z,100541.22
2022-08-17T13:17:13.386Z,100530.44
2022-08-17T13:24:18.028Z,100545.19
2022-08-17T13:31:24.026Z,100536.25
2022-08-17T13:38:47.134Z,100541.03
2022-08-17T13:45:50.831Z,100525.06
2022-08-17T13:52:52.551Z,100541.63
2022-08-17T13:59:55.966Z,100530.56
2022-08-17T14:06:57.791Z,100540.06
2022-08-17T14:13:59.248Z,100537.19
2022-08-17T14:21:00.694Z,100514.50
2022-08-17T14:28:04.411Z,100524.63
2022-08-17T14:35:06.075Z,100523.34
2022-08-17T14:42:07.562Z,100513.41
2022-08-17T14:49:10.149Z,100513.22
2022-08-17T14:56:13.330Z,100511.13
2022-08-17T15:03:15.390Z,100527.09
2022-08-17T15:10:17.608Z,100516.44
2022-08-17T15:17:19.075Z,100515.47
2022-08-17T15:24:20.540Z,100517.19
2022-08-17T15:31:31.709Z,100510.69
2022-08-17T15:38:36.594Z,100507.06
2022-08-17T15:45:38.075Z,100512.06
2022-08-17T15:52:40.570Z,100500.69
2022-08-17T15:59:43.327Z,100490.94
2022-08-17T16:06:44.826Z,100483.84
2022-08-17T16:13:47.364Z,100483.41
2022-08-17T16:20:56.644Z,100481.56
2022-08-17T16:27:58.090Z,100483.16
2022-08-17T16:35:03.535Z,100500.34
2022-08-17T16:42:05.551Z,100489.09
2022-08-17T16:49:08.251Z,100494.09
2022-08-17T16:56:12.921Z,100490.06
2022-08-17T17:03:19.424Z,100480.06
2022-08-17T17:10:40.800Z,100480.78
2022-08-17T17:17:42.278Z,100474.78
2022-08-17T17:24:52.939Z,100480.97
2022-08-17T17:32:14.940Z,100485.88
2022-08-17T17:39:20.121Z,100483.22
2022-08-17T17:46:33.284Z,100480.38
2022-08-17T17:53:43.366Z,100474.91
2022-08-17T18:00:48.288Z,100483.72
2022-08-17T18:07:52.433Z,100489.72
2022-08-17T18:15:00.546Z,100485.13
2022-08-17T18:22:14.603Z,100494.28
2022-08-17T18:29:22.000Z,100491.63
2022-08-17T18:36:27.975Z,100504.84
2022-08-17T18:43:43.767Z,100515.09
2022-08-17T18:50:56.277Z,100517.06
2022-08-17T18:57:59.461Z,100512.25
2022-08-17T19:05:10.055Z,100509.72
2022-08-17T19:12:13.964Z,100512.38
2022-08-17T19:19:23.220Z,100509.41
2022-08-17T19:26:54.308Z,100506.81
2022-08-17T19:33:48.136Z,100510.13
2022-08-17T19:40:59.051Z,100510.78
2022-08-17T19:48:04.279Z,100507.38
2022-08-17T19:55:09.079Z,100513.19
2022-08-17T20:02:22.644Z,100504.66
2022-08-17T20:09:33.633Z,100502.28
2022-08-17T20:16:35.436Z,100503.81
2022-08-17T20:23:42.966Z,100507.66
2022-08-17T20:30:44.435Z,100502.34
2022-08-17T20:37:52.300Z,100501.28
2022-08-17T20:45:13.799Z,100502.56
2022-08-17T20:52:16.650Z,100503.38
2022-08-17T20:59:22.786Z,100510.41
2022-08-17T21:06:24.418Z,100509.53
2022-08-17T21:13:44.941Z,100505.00
2022-08-17T21:20:49.564Z,100510.53
2022-08-17T21:27:51.221Z,100516.47
2022-08-17T21:35:11.213Z,100530.09
2022-08-17T21:42:12.703Z,100519.00
2022-08-17T21:49:16.622Z,100515.94
2022-08-17T21:56:22.616Z,100516.28
2022-08-17T22:03:25.766Z,100525.19
2022-08-17T22:10:37.857Z,100521.13
2022-08-17T22:17:45.999Z,100523.41
2022-08-17T22:24:55.393Z,100522.97
2022-08-17T22:31:58.829Z,100535.94
2022-08-17T22:39:09.431Z,100541.22
2022-08-17T22:46:10.986Z,100533.06
2022-08-17T22:53:35.736Z,100541.97
2022-08-17T23:00:41.400Z,100548.25
2022-08-17T23:07:43.502Z,100536.25
2022-08-17T23:14:46.894Z,100534.28
2022-08-17T23:21:52.437Z,100534.22
2022-08-17T23:28:53.908Z,100533.31
2022-08-17T23:36:00.305Z,100526.47
2022-08-17T23:43:05.947Z,100528.38
2022-08-17T23:50:19.456Z,100523.47
2022-08-17T23:57:33.818Z,100521.06
